sensor_id;sensor_type;location;lat;lon;timestamp;P1;durP1;ratioP1;P2;durP2;ratioP2
9334;SDS011;4706;41.844;26.082;2023-03-14T00:00:03;9.07;;;7.80;;
9334;SDS011;4706;41.844;26.082;2023-03-14T00:02:31;8.35;;;6.82;;
9334;SDS011;4706;41.844;26.082;2023-03-14T00:04:56;8.82;;;6.78;;
9334;SDS011;4706;41.844;26.082;2023-03-14T00:07:22;7.43;;;6.57;;
9334;SDS011;4706;41.844;26.082;2023-03-14T00:09:50;7.70;;;6.22;;
9334;SDS011;4706;41.844;26.082;2023-03-14T00:12:16;6.35;;;5.72;;
9334;SDS011;4706;41.844;26.082;2023-03-14T00:14:41;6.53;;;5.82;;
9334;SDS011;4706;41.844;26.082;2023-03-14T00:17:08;5.95;;;5.30;;
9334;SDS011;4706;41.844;26.082;2023-03-14T00:19:33;5.85;;;5.00;;
9334;SDS011;4706;41.844;26.082;2023-03-14T00:21:59;6.25;;;5.05;;
9334;SDS011;4706;41.844;26.082;2023-03-14T00:24:25;7.68;;;4.90;;
9334;SDS011;4706;41.844;26.082;2023-03-14T00:26:50;5.38;;;4.85;;
9334;SDS011;4706;41.844;26.082;2023-03-14T00:29:16;6.20;;;4.60;;
9334;SDS011;4706;41.844;26.082;2023-03-14T00:31:41;4.90;;;3.65;;
9334;SDS011;4706;41.844;26.082;2023-03-14T00:34:07;4.72;;;4.25;;
9334;SDS011;4706;41.844;26.082;2023-03-14T00:36:32;5.47;;;4.18;;
9334;SDS011;4706;41.844;26.082;2023-03-14T00:38:58;4.90;;;4.50;;
9334;SDS011;4706;41.844;26.082;2023-03-14T00:41:23;8.13;;;6.00;;
9334;SDS011;4706;41.844;26.082;2023-03-14T00:43:49;6.45;;;5.72;;
9334;SDS011;4706;41.844;26.082;2023-03-14T00:46:16;8.98;;;7.60;;
9334;SDS011;4706;41.844;26.082;2023-03-14T00:48:41;6.72;;;6.03;;
9334;SDS011;4706;41.844;26.082;2023-03-14T00:51:08;7.25;;;5.45;;
9334;SDS011;4706;41.844;26.082;2023-03-14T00:53:35;11.00;;;9.50;;
9334;SDS011;4706;41.844;26.082;2023-03-14T00:56:05;11.65;;;9.35;;
9334;SDS011;4706;41.844;26.082;2023-03-14T00:58:32;10.73;;;9.20;;
9334;SDS011;4706;41.844;26.082;2023-03-14T01:00:58;9.32;;;8.35;;
9334;SDS011;4706;41.844;26.082;2023-03-14T01:03:23;15.27;;;11.05;;
9334;SDS011;4706;41.844;26.082;2023-03-14T01:05:49;17.98;;;13.70;;
9334;SDS011;4706;41.844;26.082;2023-03-14T01:08:15;17.52;;;13.40;;
9334;SDS011;4706;41.844;26.082;2023-03-14T01:10:40;14.38;;;10.65;;
9334;SDS011;4706;41.844;26.082;2023-03-14T01:13:07;13.18;;;8.23;;
9334;SDS011;4706;41.844;26.082;2023-03-14T01:15:34;10.77;;;7.05;;
9334;SDS011;4706;41.844;26.082;2023-03-14T01:18:01;16.38;;;7.47;;
9334;SDS011;4706;41.844;26.082;2023-03-14T01:20:26;14.02;;;8.60;;
9334;SDS011;4706;41.844;26.082;2023-03-14T01:22:52;12.73;;;7.85;;
9334;SDS011;4706;41.844;26.082;2023-03-14T01:25:17;8.95;;;7.18;;
9334;SDS011;4706;41.844;26.082;2023-03-14T01:27:43;10.05;;;6.10;;
9334;SDS011;4706;41.844;26.082;2023-03-14T01:30:09;8.52;;;5.78;;
9334;SDS011;4706;41.844;26.082;2023-03-14T01:32:36;8.57;;;5.35;;
9334;SDS011;4706;41.844;26.082;2023-03-14T01:35:02;6.95;;;5.78;;
9334;SDS011;4706;41.844;26.082;2023-03-14T01:37:28;6.32;;;5.47;;
9334;SDS011;4706;41.844;26.082;2023-03-14T01:39:54;6.00;;;5.40;;
9334;SDS011;4706;41.844;26.082;2023-03-14T01:42:19;8.73;;;6.10;;
9334;SDS011;4706;41.844;26.082;2023-03-14T01:44:48;11.90;;;6.40;;
9334;SDS011;4706;41.844;26.082;2023-03-14T01:47:14;12.20;;;8.23;;
9334;SDS011;4706;41.844;26.082;2023-03-14T01:49:39;26.63;;;15.07;;
9334;SDS011;4706;41.844;26.082;2023-03-14T01:52:27;20.73;;;13.13;;
9334;SDS011;4706;41.844;26.082;2023-03-14T01:54:59;14.57;;;9.52;;
9334;SDS011;4706;41.844;26.082;2023-03-14T01:57:37;9.23;;;6.57;;
9334;SDS011;4706;41.844;26.082;2023-03-14T02:02:36;10.25;;;6.25;;
9334;SDS011;4706;41.844;26.082;2023-03-14T02:05:04;8.90;;;5.95;;
9334;SDS011;4706;41.844;26.082;2023-03-14T02:07:39;7.70;;;5.60;;
9334;SDS011;4706;41.844;26.082;2023-03-14T02:10:12;8.98;;;5.72;;
9334;SDS011;4706;41.844;26.082;2023-03-14T02:12:38;8.75;;;5.68;;
9334;SDS011;4706;41.844;26.082;2023-03-14T02:15:04;9.03;;;6.47;;
9334;SDS011;4706;41.844;26.082;2023-03-14T02:17:32;17.50;;;11.50;;
9334;SDS011;4706;41.844;26.082;2023-03-14T02:20:03;7.17;;;5.17;;
9334;SDS011;4706;41.844;26.082;2023-03-14T02:22:34;8.67;;;5.20;;
9334;SDS011;4706;41.844;26.082;2023-03-14T02:27:39;8.77;;;6.40;;
9334;SDS011;4706;41.844;26.082;2023-03-14T02:30:06;6.55;;;5.68;;
9334;SDS011;4706;41.844;26.082;2023-03-14T02:32:36;6.30;;;5.50;;
9334;SDS011;4706;41.844;26.082;2023-03-14T02:35:05;6.20;;;5.63;;
9334;SDS011;4706;41.844;26.082;2023-03-14T02:40:29;6.53;;;5.93;;
9334;SDS011;4706;41.844;26.082;2023-03-14T02:42:55;6.65;;;6.00;;
9334;SDS011;4706;41.844;26.082;2023-03-14T02:47:47;9.00;;;6.13;;
9334;SDS011;4706;41.844;26.082;2023-03-14T02:50:18;7.27;;;6.43;;
9334;SDS011;4706;41.844;26.082;2023-03-14T02:52:47;6.63;;;5.93;;
9334;SDS011;4706;41.844;26.082;2023-03-14T02:55:13;7.33;;;6.03;;
9334;SDS011;4706;41.844;26.082;2023-03-14T02:57:38;5.20;;;4.67;;
9334;SDS011;4706;41.844;26.082;2023-03-14T03:00:04;5.27;;;4.70;;
9334;SDS011;4706;41.844;26.082;2023-03-14T03:02:30;6.45;;;5.47;;
9334;SDS011;4706;41.844;26.082;2023-03-14T03:04:56;9.83;;;7.80;;
9334;SDS011;4706;41.844;26.082;2023-03-14T03:07:22;14.50;;;13.02;;
9334;SDS011;4706;41.844;26.082;2023-03-14T03:09:47;16.52;;;14.85;;
9334;SDS011;4706;41.844;26.082;2023-03-14T03:12:13;16.63;;;14.93;;
9334;SDS011;4706;41.844;26.082;2023-03-14T03:14:38;24.08;;;19.27;;
9334;SDS011;4706;41.844;26.082;2023-03-14T03:17:04;28.40;;;21.52;;
9334;SDS011;4706;41.844;26.082;2023-03-14T03:19:30;21.13;;;17.90;;
9334;SDS011;4706;41.844;26.082;2023-03-14T03:21:56;19.15;;;15.85;;
9334;SDS011;4706;41.844;26.082;2023-03-14T03:24:23;15.53;;;13.93;;
9334;SDS011;4706;41.844;26.082;2023-03-14T03:26:49;14.57;;;13.07;;
9334;SDS011;4706;41.844;26.082;2023-03-14T03:29:14;17.45;;;14.15;;
9334;SDS011;4706;41.844;26.082;2023-03-14T03:31:40;19.83;;;17.02;;
9334;SDS011;4706;41.844;26.082;2023-03-14T03:34:05;17.17;;;15.57;;
9334;SDS011;4706;41.844;26.082;2023-03-14T03:36:31;18.77;;;13.88;;
9334;SDS011;4706;41.844;26.082;2023-03-14T03:38:56;14.32;;;12.60;;
9334;SDS011;4706;41.844;26.082;2023-03-14T03:41:22;14.70;;;13.00;;
9334;SDS011;4706;41.844;26.082;2023-03-14T03:43:48;14.00;;;10.10;;
9334;SDS011;4706;41.844;26.082;2023-03-14T03:46:13;9.93;;;8.37;;
9334;SDS011;4706;41.844;26.082;2023-03-14T03:48:39;9.33;;;7.77;;
9334;SDS011;4706;41.844;26.082;2023-03-14T03:51:05;12.82;;;8.90;;
9334;SDS011;4706;41.844;26.082;2023-03-14T03:53:31;11.93;;;7.30;;
9334;SDS011;4706;41.844;26.082;2023-03-14T03:55:57;10.10;;;9.00;;
9334;SDS011;4706;41.844;26.082;2023-03-14T03:58:22;20.73;;;11.27;;
9334;SDS011;4706;41.844;26.082;2023-03-14T04:00:48;15.43;;;9.47;;
9334;SDS011;4706;41.844;26.082;2023-03-14T04:03:13;11.13;;;9.77;;
9334;SDS011;4706;41.844;26.082;2023-03-14T04:05:39;10.60;;;9.23;;
9334;SDS011;4706;41.844;26.082;2023-03-14T04:08:04;10.70;;;8.13;;
9334;SDS011;4706;41.844;26.082;2023-03-14T04:10:33;12.33;;;8.30;;
9334;SDS011;4706;41.844;26.082;2023-03-14T04:12:59;16.53;;;10.97;;
9334;SDS011;4706;41.844;26.082;2023-03-14T04:15:25;15.53;;;13.00;;
9334;SDS011;4706;41.844;26.082;2023-03-14T04:17:50;14.77;;;9.93;;
9334;SDS011;4706;41.844;26.082;2023-03-14T04:20:16;14.87;;;10.27;;
9334;SDS011;4706;41.844;26.082;2023-03-14T04:22:41;16.63;;;10.30;;
9334;SDS011;4706;41.844;26.082;2023-03-14T04:25:07;11.77;;;9.40;;
9334;SDS011;4706;41.844;26.082;2023-03-14T04:27:33;10.23;;;7.63;;
9334;SDS011;4706;41.844;26.082;2023-03-14T04:29:58;11.33;;;7.90;;
9334;SDS011;4706;41.844;26.082;2023-03-14T04:32:24;12.77;;;8.40;;
9334;SDS011;4706;41.844;26.082;2023-03-14T04:34:49;21.67;;;9.93;;
9334;SDS011;4706;41.844;26.082;2023-03-14T04:37:14;17.53;;;10.50;;
9334;SDS011;4706;41.844;26.082;2023-03-14T04:39:40;12.37;;;9.07;;
9334;SDS011;4706;41.844;26.082;2023-03-14T04:42:06;9.70;;;8.13;;
9334;SDS011;4706;41.844;26.082;2023-03-14T04:44:32;9.57;;;8.57;;
9334;SDS011;4706;41.844;26.082;2023-03-14T04:46:57;11.87;;;10.63;;
9334;SDS011;4706;41.844;26.082;2023-03-14T04:49:22;13.60;;;11.57;;
9334;SDS011;4706;41.844;26.082;2023-03-14T04:51:48;15.17;;;13.07;;
9334;SDS011;4706;41.844;26.082;2023-03-14T04:54:16;16.63;;;14.63;;
9334;SDS011;4706;41.844;26.082;2023-03-14T04:56:42;17.87;;;15.80;;
9334;SDS011;4706;41.844;26.082;2023-03-14T04:59:07;18.47;;;15.47;;
9334;SDS011;4706;41.844;26.082;2023-03-14T05:01:33;17.53;;;15.60;;
9334;SDS011;4706;41.844;26.082;2023-03-14T05:03:59;16.67;;;14.87;;
9334;SDS011;4706;41.844;26.082;2023-03-14T05:06:24;13.83;;;12.53;;
9334;SDS011;4706;41.844;26.082;2023-03-14T05:08:50;15.60;;;12.87;;
9334;SDS011;4706;41.844;26.082;2023-03-14T05:11:15;14.20;;;12.27;;
9334;SDS011;4706;41.844;26.082;2023-03-14T05:13:41;12.23;;;10.93;;
9334;SDS011;4706;41.844;26.082;2023-03-14T05:16:07;13.45;;;11.60;;
9334;SDS011;4706;41.844;26.082;2023-03-14T05:18:35;13.47;;;11.50;;
9334;SDS011;4706;41.844;26.082;2023-03-14T05:21:01;12.27;;;10.97;;
9334;SDS011;4706;41.844;26.082;2023-03-14T05:23:26;11.73;;;10.50;;
9334;SDS011;4706;41.844;26.082;2023-03-14T05:25:52;15.57;;;11.43;;
9334;SDS011;4706;41.844;26.082;2023-03-14T05:28:18;12.37;;;10.97;;
9334;SDS011;4706;41.844;26.082;2023-03-14T05:30:44;14.18;;;12.68;;
9334;SDS011;4706;41.844;26.082;2023-03-14T05:33:09;20.30;;;15.77;;
9334;SDS011;4706;41.844;26.082;2023-03-14T05:35:35;15.35;;;12.10;;
9334;SDS011;4706;41.844;26.082;2023-03-14T05:38:00;14.02;;;12.25;;
9334;SDS011;4706;41.844;26.082;2023-03-14T05:40:26;14.87;;;13.27;;
9334;SDS011;4706;41.844;26.082;2023-03-14T05:42:51;16.00;;;12.57;;
9334;SDS011;4706;41.844;26.082;2023-03-14T05:45:17;22.67;;;17.70;;
9334;SDS011;4706;41.844;26.082;2023-03-14T05:47:43;22.37;;;14.87;;
9334;SDS011;4706;41.844;26.082;2023-03-14T05:50:09;12.83;;;10.60;;
9334;SDS011;4706;41.844;26.082;2023-03-14T05:52:35;11.37;;;9.73;;
9334;SDS011;4706;41.844;26.082;2023-03-14T05:55:01;18.83;;;10.67;;
9334;SDS011;4706;41.844;26.082;2023-03-14T05:57:26;14.33;;;12.03;;
9334;SDS011;4706;41.844;26.082;2023-03-14T05:59:52;20.47;;;13.63;;
9334;SDS011;4706;41.844;26.082;2023-03-14T06:02:17;13.77;;;11.03;;
9334;SDS011;4706;41.844;26.082;2023-03-14T06:04:43;14.33;;;11.70;;
9334;SDS011;4706;41.844;26.082;2023-03-14T06:07:08;14.50;;;10.47;;
9334;SDS011;4706;41.844;26.082;2023-03-14T06:09:34;12.73;;;10.27;;
9334;SDS011;4706;41.844;26.082;2023-03-14T06:11:59;16.20;;;12.63;;
9334;SDS011;4706;41.844;26.082;2023-03-14T06:14:25;12.67;;;10.33;;
9334;SDS011;4706;41.844;26.082;2023-03-14T06:16:50;11.97;;;9.87;;
9334;SDS011;4706;41.844;26.082;2023-03-14T06:19:16;14.15;;;11.15;;
9334;SDS011;4706;41.844;26.082;2023-03-14T06:21:41;18.08;;;11.75;;
9334;SDS011;4706;41.844;26.082;2023-03-14T06:24:07;16.92;;;10.07;;
9334;SDS011;4706;41.844;26.082;2023-03-14T06:26:33;11.55;;;10.05;;
9334;SDS011;4706;41.844;26.082;2023-03-14T06:28:58;16.20;;;11.10;;
9334;SDS011;4706;41.844;26.082;2023-03-14T06:31:31;18.20;;;12.45;;
9334;SDS011;4706;41.844;26.082;2023-03-14T06:33:57;23.20;;;16.05;;
9334;SDS011;4706;41.844;26.082;2023-03-14T06:36:23;21.50;;;10.13;;
9334;SDS011;4706;41.844;26.082;2023-03-14T06:38:49;12.23;;;9.30;;
9334;SDS011;4706;41.844;26.082;2023-03-14T06:41:15;13.93;;;8.27;;
9334;SDS011;4706;41.844;26.082;2023-03-14T06:43:41;14.85;;;8.23;;
9334;SDS011;4706;41.844;26.082;2023-03-14T06:46:07;55.03;;;13.93;;
9334;SDS011;4706;41.844;26.082;2023-03-14T06:48:32;48.63;;;12.63;;
9334;SDS011;4706;41.844;26.082;2023-03-14T06:50:58;11.63;;;7.90;;
9334;SDS011;4706;41.844;26.082;2023-03-14T06:53:23;7.75;;;6.28;;
9334;SDS011;4706;41.844;26.082;2023-03-14T06:55:49;9.52;;;7.90;;
9334;SDS011;4706;41.844;26.082;2023-03-14T06:58:15;9.60;;;7.70;;
9334;SDS011;4706;41.844;26.082;2023-03-14T07:00:41;13.55;;;8.23;;
9334;SDS011;4706;41.844;26.082;2023-03-14T07:03:07;10.70;;;8.95;;
9334;SDS011;4706;41.844;26.082;2023-03-14T07:05:32;14.82;;;8.43;;
9334;SDS011;4706;41.844;26.082;2023-03-14T07:07:58;9.95;;;7.88;;
9334;SDS011;4706;41.844;26.082;2023-03-14T07:10:23;9.10;;;8.18;;
9334;SDS011;4706;41.844;26.082;2023-03-14T07:12:49;8.02;;;7.22;;
9334;SDS011;4706;41.844;26.082;2023-03-14T07:15:14;9.88;;;8.00;;
9334;SDS011;4706;41.844;26.082;2023-03-14T07:17:41;10.35;;;7.45;;
9334;SDS011;4706;41.844;26.082;2023-03-14T07:20:07;9.55;;;6.20;;
9334;SDS011;4706;41.844;26.082;2023-03-14T07:22:35;10.27;;;6.75;;
9334;SDS011;4706;41.844;26.082;2023-03-14T07:25:01;12.93;;;7.45;;
9334;SDS011;4706;41.844;26.082;2023-03-14T07:27:26;10.63;;;7.60;;
9334;SDS011;4706;41.844;26.082;2023-03-14T07:29:52;7.97;;;6.90;;
9334;SDS011;4706;41.844;26.082;2023-03-14T07:32:17;8.10;;;5.75;;
9334;SDS011;4706;41.844;26.082;2023-03-14T07:34:42;5.90;;;5.38;;
9334;SDS011;4706;41.844;26.082;2023-03-14T07:37:09;6.40;;;5.60;;
9334;SDS011;4706;41.844;26.082;2023-03-14T07:39:35;5.97;;;5.38;;
9334;SDS011;4706;41.844;26.082;2023-03-14T07:42:00;6.70;;;5.85;;
9334;SDS011;4706;41.844;26.082;2023-03-14T07:44:26;6.32;;;4.60;;
9334;SDS011;4706;41.844;26.082;2023-03-14T07:46:51;6.68;;;5.47;;
9334;SDS011;4706;41.844;26.082;2023-03-14T07:49:17;8.60;;;5.53;;
9334;SDS011;4706;41.844;26.082;2023-03-14T07:51:42;5.68;;;3.97;;
9334;SDS011;4706;41.844;26.082;2023-03-14T07:54:09;5.65;;;4.25;;
9334;SDS011;4706;41.844;26.082;2023-03-14T07:56:35;5.63;;;4.57;;
9334;SDS011;4706;41.844;26.082;2023-03-14T07:59:00;7.68;;;4.40;;
9334;SDS011;4706;41.844;26.082;2023-03-14T08:01:26;7.22;;;4.00;;
9334;SDS011;4706;41.844;26.082;2023-03-14T08:03:52;4.75;;;3.33;;
9334;SDS011;4706;41.844;26.082;2023-03-14T08:06:17;5.45;;;4.47;;
9334;SDS011;4706;41.844;26.082;2023-03-14T08:08:43;5.30;;;3.50;;
9334;SDS011;4706;41.844;26.082;2023-03-14T08:11:08;4.78;;;3.50;;
9334;SDS011;4706;41.844;26.082;2023-03-14T08:13:34;4.55;;;3.25;;
9334;SDS011;4706;41.844;26.082;2023-03-14T08:16:01;3.78;;;3.03;;
9334;SDS011;4706;41.844;26.082;2023-03-14T08:18:26;4.25;;;3.47;;
9334;SDS011;4706;41.844;26.082;2023-03-14T08:20:52;4.65;;;3.53;;
9334;SDS011;4706;41.844;26.082;2023-03-14T08:23:17;4.88;;;3.70;;
9334;SDS011;4706;41.844;26.082;2023-03-14T08:25:43;2.80;;;2.60;;
9334;SDS011;4706;41.844;26.082;2023-03-14T08:28:08;3.03;;;2.00;;
9334;SDS011;4706;41.844;26.082;2023-03-14T08:30:34;5.82;;;5.20;;
9334;SDS011;4706;41.844;26.082;2023-03-14T08:33:00;4.18;;;3.40;;
9334;SDS011;4706;41.844;26.082;2023-03-14T08:35:26;4.93;;;2.85;;
9334;SDS011;4706;41.844;26.082;2023-03-14T08:37:52;3.55;;;2.45;;
9334;SDS011;4706;41.844;26.082;2023-03-14T08:40:18;32.05;;;27.23;;
9334;SDS011;4706;41.844;26.082;2023-03-14T08:42:44;5.72;;;4.82;;
9334;SDS011;4706;41.844;26.082;2023-03-14T08:45:11;4.20;;;3.45;;
9334;SDS011;4706;41.844;26.082;2023-03-14T08:47:39;2.47;;;2.17;;
9334;SDS011;4706;41.844;26.082;2023-03-14T08:50:05;3.50;;;2.33;;
9334;SDS011;4706;41.844;26.082;2023-03-14T08:52:31;2.50;;;1.92;;
9334;SDS011;4706;41.844;26.082;2023-03-14T08:54:57;2.50;;;2.13;;
9334;SDS011;4706;41.844;26.082;2023-03-14T08:57:23;3.08;;;2.35;;
9334;SDS011;4706;41.844;26.082;2023-03-14T08:59:53;2.17;;;1.50;;
9334;SDS011;4706;41.844;26.082;2023-03-14T09:02:20;1.85;;;1.65;;
9334;SDS011;4706;41.844;26.082;2023-03-14T09:04:46;4.47;;;2.53;;
9334;SDS011;4706;41.844;26.082;2023-03-14T09:07:11;1.80;;;1.52;;
9334;SDS011;4706;41.844;26.082;2023-03-14T09:09:37;2.30;;;1.70;;
9334;SDS011;4706;41.844;26.082;2023-03-14T09:12:02;2.80;;;1.80;;
9334;SDS011;4706;41.844;26.082;2023-03-14T09:14:28;1.70;;;1.60;;
9334;SDS011;4706;41.844;26.082;2023-03-14T09:16:54;3.80;;;1.70;;
9334;SDS011;4706;41.844;26.082;2023-03-14T09:19:20;3.40;;;1.70;;
9334;SDS011;4706;41.844;26.082;2023-03-14T09:21:45;2.72;;;1.50;;
9334;SDS011;4706;41.844;26.082;2023-03-14T09:24:11;2.85;;;1.30;;
9334;SDS011;4706;41.844;26.082;2023-03-14T09:26:36;2.03;;;1.35;;
9334;SDS011;4706;41.844;26.082;2023-03-14T09:29:02;3.28;;;2.70;;
9334;SDS011;4706;41.844;26.082;2023-03-14T09:31:28;3.00;;;1.30;;
9334;SDS011;4706;41.844;26.082;2023-03-14T09:33:54;5.95;;;1.90;;
9334;SDS011;4706;41.844;26.082;2023-03-14T09:36:20;4.70;;;2.20;;
9334;SDS011;4706;41.844;26.082;2023-03-14T09:38:46;2.70;;;1.85;;
9334;SDS011;4706;41.844;26.082;2023-03-14T09:41:16;2.15;;;1.30;;
9334;SDS011;4706;41.844;26.082;2023-03-14T09:43:46;1.30;;;1.20;;
9334;SDS011;4706;41.844;26.082;2023-03-14T09:46:16;1.77;;;1.42;;
9334;SDS011;4706;41.844;26.082;2023-03-14T09:48:42;2.40;;;1.83;;
9334;SDS011;4706;41.844;26.082;2023-03-14T09:51:16;2.30;;;1.52;;
9334;SDS011;4706;41.844;26.082;2023-03-14T09:53:46;3.17;;;1.73;;
9334;SDS011;4706;41.844;26.082;2023-03-14T09:56:18;1.90;;;1.38;;
9334;SDS011;4706;41.844;26.082;2023-03-14T09:58:46;2.30;;;1.80;;
9334;SDS011;4706;41.844;26.082;2023-03-14T10:01:16;2.35;;;1.63;;
9334;SDS011;4706;41.844;26.082;2023-03-14T10:03:47;2.03;;;1.65;;
9334;SDS011;4706;41.844;26.082;2023-03-14T10:06:13;5.18;;;2.10;;
9334;SDS011;4706;41.844;26.082;2023-03-14T10:08:40;2.00;;;1.65;;
9334;SDS011;4706;41.844;26.082;2023-03-14T10:11:09;1.50;;;1.40;;
9334;SDS011;4706;41.844;26.082;2023-03-14T10:13:46;2.60;;;1.52;;
9334;SDS011;4706;41.844;26.082;2023-03-14T10:16:22;8.20;;;2.65;;
9334;SDS011;4706;41.844;26.082;2023-03-14T10:18:58;2.03;;;1.45;;
9334;SDS011;4706;41.844;26.082;2023-03-14T10:21:28;2.15;;;1.50;;
9334;SDS011;4706;41.844;26.082;2023-03-14T10:24:06;2.58;;;1.40;;
9334;SDS011;4706;41.844;26.082;2023-03-14T10:26:33;4.47;;;4.05;;
9334;SDS011;4706;41.844;26.082;2023-03-14T10:29:04;1.25;;;1.15;;
9334;SDS011;4706;41.844;26.082;2023-03-14T10:31:54;2.60;;;2.40;;
9334;SDS011;4706;41.844;26.082;2023-03-14T10:34:25;1.58;;;1.42;;
9334;SDS011;4706;41.844;26.082;2023-03-14T10:36:53;4.30;;;1.60;;
9334;SDS011;4706;41.844;26.082;2023-03-14T10:39:24;3.28;;;2.10;;
9334;SDS011;4706;41.844;26.082;2023-03-14T10:41:53;2.22;;;1.60;;
9334;SDS011;4706;41.844;26.082;2023-03-14T10:44:55;1.48;;;1.38;;
9334;SDS011;4706;41.844;26.082;2023-03-14T10:47:23;2.42;;;1.40;;
9334;SDS011;4706;41.844;26.082;2023-03-14T10:49:51;2.17;;;1.38;;
9334;SDS011;4706;41.844;26.082;2023-03-14T10:52:21;2.72;;;1.85;;
9334;SDS011;4706;41.844;26.082;2023-03-14T10:54:53;3.20;;;1.60;;
9334;SDS011;4706;41.844;26.082;2023-03-14T10:57:24;3.28;;;2.67;;
9334;SDS011;4706;41.844;26.082;2023-03-14T10:59:50;1.92;;;1.58;;
9334;SDS011;4706;41.844;26.082;2023-03-14T11:15:40;1.77;;;1.40;;
9334;SDS011;4706;41.844;26.082;2023-03-14T11:20:52;3.35;;;1.60;;
9334;SDS011;4706;41.844;26.082;2023-03-14T11:23:25;1.45;;;1.30;;
9334;SDS011;4706;41.844;26.082;2023-03-14T11:33:43;1.20;;;1.10;;
9334;SDS011;4706;41.844;26.082;2023-03-14T11:36:22;1.50;;;1.00;;
9334;SDS011;4706;41.844;26.082;2023-03-14T11:38:57;1.20;;;1.10;;
9334;SDS011;4706;41.844;26.082;2023-03-14T11:41:35;2.63;;;1.02;;
9334;SDS011;4706;41.844;26.082;2023-03-14T11:44:10;2.60;;;1.00;;
9334;SDS011;4706;41.844;26.082;2023-03-14T11:51:55;3.10;;;1.45;;
9334;SDS011;4706;41.844;26.082;2023-03-14T11:54:35;1.60;;;1.25;;
9334;SDS011;4706;41.844;26.082;2023-03-14T12:10:35;1.30;;;1.20;;
9334;SDS011;4706;41.844;26.082;2023-03-14T12:13:02;2.17;;;1.35;;
9334;SDS011;4706;41.844;26.082;2023-03-14T12:15:28;1.35;;;1.20;;
9334;SDS011;4706;41.844;26.082;2023-03-14T12:17:54;1.17;;;1.08;;
9334;SDS011;4706;41.844;26.082;2023-03-14T12:20:29;1.75;;;1.60;;
9334;SDS011;4706;41.844;26.082;2023-03-14T12:22:55;3.63;;;2.55;;
9334;SDS011;4706;41.844;26.082;2023-03-14T12:25:28;1.95;;;1.60;;
9334;SDS011;4706;41.844;26.082;2023-03-14T12:30:27;3.10;;;2.00;;
9334;SDS011;4706;41.844;26.082;2023-03-14T12:35:43;0.80;;;0.80;;
9334;SDS011;4706;41.844;26.082;2023-03-14T12:38:24;2.55;;;1.35;;
9334;SDS011;4706;41.844;26.082;2023-03-14T12:41:08;1.70;;;1.00;;
9334;SDS011;4706;41.844;26.082;2023-03-14T12:43:52;1.42;;;1.30;;
9334;SDS011;4706;41.844;26.082;2023-03-14T12:48:47;1.33;;;1.10;;
9334;SDS011;4706;41.844;26.082;2023-03-14T12:51:17;1.75;;;1.30;;
9334;SDS011;4706;41.844;26.082;2023-03-14T13:01:16;2.17;;;1.30;;
9334;SDS011;4706;41.844;26.082;2023-03-14T13:03:45;1.10;;;1.00;;
9334;SDS011;4706;41.844;26.082;2023-03-14T13:12:22;1.20;;;1.10;;
9334;SDS011;4706;41.844;26.082;2023-03-14T13:14:48;4.05;;;3.65;;
9334;SDS011;4706;41.844;26.082;2023-03-14T13:17:22;1.30;;;1.20;;
9334;SDS011;4706;41.844;26.082;2023-03-14T13:19:52;1.48;;;1.20;;
9334;SDS011;4706;41.844;26.082;2023-03-14T13:22:23;1.70;;;1.08;;
9334;SDS011;4706;41.844;26.082;2023-03-14T13:24:57;1.20;;;1.10;;
9334;SDS011;4706;41.844;26.082;2023-03-14T13:27:24;1.88;;;1.20;;
9334;SDS011;4706;41.844;26.082;2023-03-14T13:29:50;1.65;;;1.50;;
9334;SDS011;4706;41.844;26.082;2023-03-14T13:32:17;2.53;;;1.42;;
9334;SDS011;4706;41.844;26.082;2023-03-14T13:34:45;2.15;;;1.13;;
9334;SDS011;4706;41.844;26.082;2023-03-14T13:37:16;2.08;;;1.60;;
9334;SDS011;4706;41.844;26.082;2023-03-14T13:39:55;1.58;;;1.25;;
9334;SDS011;4706;41.844;26.082;2023-03-14T13:42:27;2.10;;;1.52;;
9334;SDS011;4706;41.844;26.082;2023-03-14T13:44:54;3.15;;;2.70;;
9334;SDS011;4706;41.844;26.082;2023-03-14T13:47:22;2.22;;;1.40;;
9334;SDS011;4706;41.844;26.082;2023-03-14T13:49:50;2.17;;;1.40;;
9334;SDS011;4706;41.844;26.082;2023-03-14T13:52:35;3.20;;;1.73;;
9334;SDS011;4706;41.844;26.082;2023-03-14T13:55:02;5.50;;;3.50;;
9334;SDS011;4706;41.844;26.082;2023-03-14T13:57:42;2.22;;;2.03;;
9334;SDS011;4706;41.844;26.082;2023-03-14T14:00:19;2.15;;;1.83;;
9334;SDS011;4706;41.844;26.082;2023-03-14T14:02:52;3.47;;;3.17;;
9334;SDS011;4706;41.844;26.082;2023-03-14T14:05:22;2.72;;;2.10;;
9334;SDS011;4706;41.844;26.082;2023-03-14T14:07:50;2.92;;;1.83;;
9334;SDS011;4706;41.844;26.082;2023-03-14T14:10:17;3.50;;;2.15;;
9334;SDS011;4706;41.844;26.082;2023-03-14T14:12:54;3.80;;;2.50;;
9334;SDS011;4706;41.844;26.082;2023-03-14T14:15:29;3.47;;;2.67;;
9334;SDS011;4706;41.844;26.082;2023-03-14T14:18:04;3.10;;;2.47;;
9334;SDS011;4706;41.844;26.082;2023-03-14T14:20:35;4.80;;;3.10;;
9334;SDS011;4706;41.844;26.082;2023-03-14T14:23:04;2.45;;;2.25;;
9334;SDS011;4706;41.844;26.082;2023-03-14T14:25:34;6.95;;;4.35;;
9334;SDS011;4706;41.844;26.082;2023-03-14T14:28:14;2.38;;;1.80;;
9334;SDS011;4706;41.844;26.082;2023-03-14T14:30:43;2.17;;;1.98;;
9334;SDS011;4706;41.844;26.082;2023-03-14T14:33:26;4.95;;;2.28;;
9334;SDS011;4706;41.844;26.082;2023-03-14T14:35:56;3.65;;;2.10;;
9334;SDS011;4706;41.844;26.082;2023-03-14T14:38:24;7.28;;;2.83;;
9334;SDS011;4706;41.844;26.082;2023-03-14T14:40:53;10.98;;;6.30;;
9334;SDS011;4706;41.844;26.082;2023-03-14T14:43:26;2.28;;;1.90;;
9334;SDS011;4706;41.844;26.082;2023-03-14T14:45:54;4.05;;;1.83;;
9334;SDS011;4706;41.844;26.082;2023-03-14T14:48:25;1.95;;;1.73;;
9334;SDS011;4706;41.844;26.082;2023-03-14T14:51:02;3.17;;;2.45;;
9334;SDS011;4706;41.844;26.082;2023-03-14T14:53:35;4.32;;;3.20;;
9334;SDS011;4706;41.844;26.082;2023-03-14T14:56:07;3.65;;;2.40;;
9334;SDS011;4706;41.844;26.082;2023-03-14T14:58:49;2.60;;;1.80;;
9334;SDS011;4706;41.844;26.082;2023-03-14T15:01:17;7.18;;;2.92;;
9334;SDS011;4706;41.844;26.082;2023-03-14T15:03:49;6.45;;;2.10;;
9334;SDS011;4706;41.844;26.082;2023-03-14T15:06:17;2.70;;;2.20;;
9334;SDS011;4706;41.844;26.082;2023-03-14T15:08:44;2.00;;;1.80;;
9334;SDS011;4706;41.844;26.082;2023-03-14T15:11:17;2.75;;;1.80;;
9334;SDS011;4706;41.844;26.082;2023-03-14T15:13:48;1.70;;;1.60;;
9334;SDS011;4706;41.844;26.082;2023-03-14T15:16:18;2.00;;;1.48;;
9334;SDS011;4706;41.844;26.082;2023-03-14T15:18:47;4.90;;;4.47;;
9334;SDS011;4706;41.844;26.082;2023-03-14T15:21:18;4.32;;;3.83;;
9334;SDS011;4706;41.844;26.082;2023-03-14T15:23:43;3.78;;;2.35;;
9334;SDS011;4706;41.844;26.082;2023-03-14T15:26:19;5.07;;;4.30;;
9334;SDS011;4706;41.844;26.082;2023-03-14T15:28:48;5.78;;;3.38;;
9334;SDS011;4706;41.844;26.082;2023-03-14T15:31:14;3.88;;;3.42;;
9334;SDS011;4706;41.844;26.082;2023-03-14T15:33:42;3.47;;;2.30;;
9334;SDS011;4706;41.844;26.082;2023-03-14T15:36:21;4.05;;;2.40;;
9334;SDS011;4706;41.844;26.082;2023-03-14T15:38:47;3.40;;;3.00;;
9334;SDS011;4706;41.844;26.082;2023-03-14T15:41:13;4.32;;;2.90;;
9334;SDS011;4706;41.844;26.082;2023-03-14T15:43:40;7.22;;;3.67;;
9334;SDS011;4706;41.844;26.082;2023-03-14T15:46:08;11.18;;;8.60;;
9334;SDS011;4706;41.844;26.082;2023-03-14T15:48:34;14.15;;;10.40;;
9334;SDS011;4706;41.844;26.082;2023-03-14T15:51:00;8.45;;;6.32;;
9334;SDS011;4706;41.844;26.082;2023-03-14T15:53:25;9.40;;;7.38;;
9334;SDS011;4706;41.844;26.082;2023-03-14T15:55:51;8.00;;;5.93;;
9334;SDS011;4706;41.844;26.082;2023-03-14T15:58:17;11.10;;;6.70;;
9334;SDS011;4706;41.844;26.082;2023-03-14T16:00:45;11.32;;;8.00;;
9334;SDS011;4706;41.844;26.082;2023-03-14T16:03:10;32.25;;;23.92;;
9334;SDS011;4706;41.844;26.082;2023-03-14T16:05:37;10.23;;;6.25;;
9334;SDS011;4706;41.844;26.082;2023-03-14T16:08:06;6.00;;;4.32;;
9334;SDS011;4706;41.844;26.082;2023-03-14T16:10:32;11.10;;;8.30;;